KCHA/CHA METAR and TAF weather

Enter ICAO airport designator
Station Type Date Time Source
KCHA METAR 2020/04/09 18:53 UTC NOAA

KCHA 091853Z 31009KT 10SM FEW200 BKN250 23/03 A2982 RMK AO2 SLP093 T02280033


Station Type Date Time Source
KCHA Decoded METAR 2020/04/09 18:53 UTC NOAA

LOVELL FIELD, TN, United States (KCHA) 35-02N 085-12W 210M
Apr 09, 2020 - 02:53 PM EDT / 2020.04.09 1853 UTC
Wind: from the NW (310 degrees) at 10 MPH (9 KT):0
Visibility: 10 mile(s):0
Sky conditions: mostly cloudy
Temperature: 73.0 F (22.8 C)
Dew Point: 37.9 F (3.3 C)
Relative Humidity: 27%
Pressure (altimeter): 29.82 in. Hg (1009 hPa)
ob: KCHA 091853Z 31009KT 10SM FEW200 BKN250 23/03 A2982 RMK AO2 SLP093 T02280033
cycle: 19

Station Type Date Time Source
KCHA TAF 2020/04/09 18:30 UTC NOAA

TAF KCHA 091727Z 0918/1018 32012G18KT P6SM FEW250
FM092300 32011KT P6SM FEW250
FM100700 35012KT P6SM FEW250

Example: see airport list